Hlavní strana
METAR-TAF:

METAR-TAF

Letiště :

Parma, Itálie

zeměpisná šířka: 44-49-17N, zeměpisná délka: 010-17-41E, výška: 50 m

Aktuální stav počasí

Zpráva byla vytvořena před 6 hodinami a 45 minutami, v 19:50 UTC
Bezvětří
Teplota 1°C
Vlhkost vzduchu 80%
Tlak 1019 hPa
Viditelnost: 8000 m
Polojasno ve výšce 6000 ft

METAR: LIMP 121950Z 00000KT 8000 SCT060 01/M02 Q1019

Čas: 03:35 (02:35 UTC)

Předpověď počasí

Zpráva byla vytvořena před 9 hodinami a 35 minutami, v 17:00 UTC
Předpověď platná od 12 v 18 UTC do 13 v 18 UTC
vítr z různých směrů 5 kt
Viditelnost 10 km a více
Polojasno ve výšce 2500 ft
Oblačno až skoro zataženo ve výšce 6000 ft
Dočasný
od 13 v 08 UTC do 13 v 18 UTC
Oblačno až skoro zataženo ve výšce 1200 ft
mrholení
Pravděpodobnost 30% :
Dočasný
od 13 v 08 UTC do 13 v 14 UTC
Viditelnost: 2000 m
Oblačno až skoro zataženo ve výšce 800 ft
sníh

TAF: LIMP 121700Z 1218/1318 VRB05KT 9999 SCT025 BKN060 TEMPO 1308/1318 DZ BKN012 PROB30 TEMPO 1308/1314 2000 SN BKN008

Stav a předpovědi počasí z více než 4 000 letišť (zprávy METAR a TAF).

Červené a žluté tečky na mapě představují dostupné meteorologické stanice.

Když kurzor umístíte na tečku, zobrazí se název stanice.

Pak kliknutím zobrazíte stav a předpověď počasí.

Chcete-li změnit mapu, kliknutím na zelené tlačítko se znaménkem +mapu přiblížíte, kliknutím na zelené tlačítko se znaménkem – mapu oddálíte a kliknutím na zelené šipky přejdete na sousední mapy.


METAR-TAF: